Time;durP1;ratioP1;P1;durP2;ratioP2;P2;SDS_P1;SDS_P2;PMS_P1;PMS_P2;Temp;Humidity;BMP_temperature;BMP_pressure;BME280_temperature;BME280_humidity;BME280_pressure;Samples;Min_cycle;Max_cycle;Signal;HPM_P1;HPM_P2
2023/04/09 00:01:10;;;;;;;133.20;76.22;;;9.70;99.90;;;;;;5013385;28;20502;-69
2023/04/09 00:03:36;;;;;;;135.52;75.75;;;9.50;99.90;;;;;;5012817;28;20409;-66
2023/04/09 00:06:03;;;;;;;139.25;77.57;;;9.40;99.90;;;;;;5012517;28;20056;-65
2023/04/09 00:08:29;;;;;;;132.55;75.28;;;9.40;99.90;;;;;;5013152;28;20049;-65
2023/04/09 00:10:57;;;;;;;133.98;76.28;;;9.60;99.90;;;;;;5012942;28;20050;-70
2023/04/09 00:13:23;;;;;;;136.50;75.30;;;10.20;99.90;;;;;;5011747;28;20152;-67
2023/04/09 00:15:49;;;;;;;135.75;76.88;;;9.50;99.90;;;;;;5013054;28;20133;-65
2023/04/09 00:18:15;;;;;;;135.25;74.85;;;9.30;99.90;;;;;;5012601;28;20052;-65
2023/04/09 00:20:43;;;;;;;135.95;74.95;;;9.80;99.90;;;;;;5012725;28;20050;-65
2023/04/09 00:23:08;;;;;;;123.22;70.32;;;9.40;99.90;;;;;;5012797;28;20465;-66
2023/04/09 00:25:34;;;;;;;120.70;68.90;;;9.40;99.90;;;;;;5011372;28;20049;-65
2023/04/09 00:28:00;;;;;;;125.30;67.00;;;9.40;99.90;;;;;;5013197;28;20077;-65
2023/04/09 00:30:29;;;;;;;118.80;64.95;;;9.20;99.90;;;;;;5013045;28;20050;-65
2023/04/09 00:32:55;;;;;;;115.78;62.65;;;9.40;99.90;;;;;;5012715;28;20042;-65
2023/04/09 00:35:20;;;;;;;116.25;62.97;;;9.00;99.90;;;;;;5012833;28;20052;-65
2023/04/09 00:37:46;;;;;;;119.05;63.10;;;9.20;99.90;;;;;;5013043;28;20053;-65
2023/04/09 00:40:13;;;;;;;119.28;60.85;;;10.90;99.90;;;;;;5013187;28;20056;-70
2023/04/09 00:42:38;;;;;;;108.05;60.45;;;8.90;99.90;;;;;;5012954;28;20061;-68
2023/04/09 00:45:05;;;;;;;110.15;60.10;;;9.00;99.90;;;;;;5012620;28;20046;-65
2023/04/09 00:47:31;;;;;;;111.22;59.85;;;9.20;99.90;;;;;;5012527;28;20513;-65
2023/04/09 00:49:56;;;;;;;118.80;63.92;;;9.00;99.90;;;;;;5012734;28;20050;-65
2023/04/09 00:52:23;;;;;;;126.22;61.92;;;8.90;99.90;;;;;;5012787;28;20049;-65
2023/04/09 00:54:50;;;;;;;122.07;62.20;;;9.00;99.90;;;;;;5012699;28;20054;-66
2023/04/09 00:57:16;;;;;;;133.73;65.35;;;8.90;99.90;;;;;;5012760;28;20053;-65
2023/04/09 00:59:43;;;;;;;131.90;64.30;;;8.80;99.90;;;;;;5012760;28;20092;-65
2023/04/09 01:02:09;;;;;;;131.57;64.07;;;9.00;99.90;;;;;;5011199;28;20410;-71
2023/04/09 01:04:36;;;;;;;134.85;64.28;;;9.00;99.90;;;;;;5011712;28;20050;-65
2023/04/09 01:07:10;;;;;;;134.70;62.78;;;9.10;99.90;;;;;;5012593;28;20398;-65
2023/04/09 01:09:51;;;;;;;133.45;62.63;;;9.30;99.90;;;;;;5012328;28;20505;-64
2023/04/09 01:12:35;;;;;;;122.45;60.78;;;8.60;99.90;;;;;;5012793;28;20045;-64
2023/04/09 01:15:04;;;;;;;123.82;59.45;;;8.90;99.90;;;;;;5012663;28;20544;-64
2023/04/09 01:17:37;;;;;;;127.47;61.60;;;8.60;99.90;;;;;;5012189;28;20112;-65
2023/04/09 01:20:26;;;;;;;128.10;60.10;;;8.80;99.90;;;;;;5011495;28;20054;-65
2023/04/09 01:23:10;;;;;;;123.45;58.70;;;8.90;99.90;;;;;;5012471;28;20045;-65
2023/04/09 01:25:57;;;;;;;123.40;58.25;;;8.60;99.90;;;;;;5012689;28;20057;-65
2023/04/09 01:28:30;;;;;;;125.50;57.53;;;8.80;99.90;;;;;;5012268;28;20057;-65
2023/04/09 01:31:01;;;;;;;116.05;56.03;;;8.80;99.90;;;;;;5012066;28;20124;-65
2023/04/09 01:33:29;;;;;;;113.20;55.75;;;8.70;99.90;;;;;;5012264;28;20100;-65
2023/04/09 01:35:57;;;;;;;121.10;55.60;;;8.60;99.90;;;;;;5012131;28;20072;-68
2023/04/09 01:38:24;;;;;;;120.60;55.95;;;8.70;99.90;;;;;;5012012;28;20514;-65
2023/04/09 01:40:50;;;;;;;110.30;52.92;;;8.50;99.90;;;;;;5012265;28;20045;-65
2023/04/09 01:43:17;;;;;;;;;;;8.60;99.90;;;;;;5012638;28;20112;-66
2023/04/09 01:45:44;;;;;;;100.28;49.45;;;8.30;99.90;;;;;;5011881;28;19921;-64
2023/04/09 01:48:12;;;;;;;106.90;50.58;;;8.40;99.90;;;;;;5011881;28;20391;-65
2023/04/09 01:50:38;;;;;;;103.95;49.88;;;8.60;99.90;;;;;;5012148;28;20049;-64
2023/04/09 01:53:05;;;;;;;95.30;47.60;;;8.60;99.90;;;;;;5012039;28;20149;-68
2023/04/09 01:55:30;;;;;;;103.00;49.35;;;8.60;99.90;;;;;;5012046;28;20050;-65
2023/04/09 01:57:57;;;;;;;98.50;47.60;;;8.40;99.90;;;;;;5011990;28;20061;-68
2023/04/09 02:00:25;;;;;;;97.75;49.05;;;8.20;99.90;;;;;;5010856;28;20391;-65
2023/04/09 02:02:58;;;;;;;101.43;50.95;;;8.20;99.90;;;;;;5012086;28;20391;-65
2023/04/09 02:05:27;;;;;;;106.15;49.47;;;8.30;99.90;;;;;;5011963;28;20077;-65
2023/04/09 02:07:56;;;;;;;100.90;48.33;;;8.60;99.90;;;;;;5011696;28;20550;-65
2023/04/09 02:10:25;;;;;;;106.38;48.75;;;8.50;99.90;;;;;;5011967;28;20848;-64
2023/04/09 02:12:52;;;;;;;100.60;48.03;;;8.60;99.90;;;;;;5011820;28;20034;-65
2023/04/09 02:15:22;;;;;;;108.50;48.53;;;8.60;99.90;;;;;;5011689;28;20132;-64
2023/04/09 02:17:47;;;;;;;101.15;47.60;;;8.70;99.90;;;;;;5011908;28;20081;-66
2023/04/09 02:20:17;;;;;;;99.75;49.33;;;8.50;99.90;;;;;;5011940;28;20486;-64
2023/04/09 02:22:44;;;;;;;98.55;45.88;;;8.60;99.90;;;;;;5011909;28;20123;-65
2023/04/09 02:25:10;;;;;;;100.72;47.42;;;8.70;99.90;;;;;;5011747;28;20133;-66
2023/04/09 02:27:35;;;;;;;100.18;45.63;;;8.50;99.90;;;;;;5011896;28;20180;-64
2023/04/09 02:30:01;;;;;;;93.65;44.20;;;8.70;99.90;;;;;;5013907;28;20053;-65
2023/04/09 02:32:27;;;;;;;90.70;42.78;;;8.40;99.90;;;;;;5015359;28;20402;-65
2023/04/09 02:34:52;;;;;;;86.03;43.47;;;8.40;99.90;;;;;;5015289;28;20046;-65
2023/04/09 02:37:18;;;;;;;85.32;43.03;;;8.30;99.90;;;;;;5014810;28;20081;-65
2023/04/09 02:39:44;;;;;;;82.05;42.85;;;8.00;99.90;;;;;;5014319;28;20402;-67
2023/04/09 02:42:10;;;;;;;89.88;43.80;;;8.50;99.90;;;;;;5015232;28;20081;-69
2023/04/09 02:44:35;;;;;;;82.32;41.90;;;8.10;99.90;;;;;;5014633;28;20051;-66
2023/04/09 02:47:01;;;;;;;81.97;41.47;;;8.60;99.90;;;;;;5015212;28;20053;-65
2023/04/09 02:49:27;;;;;;;81.22;40.83;;;8.20;99.90;;;;;;5014015;28;20064;-65
2023/04/09 02:51:53;;;;;;;85.75;39.88;;;8.60;99.90;;;;;;5013831;28;20038;-65
2023/04/09 02:54:19;;;;;;;87.68;40.55;;;8.50;99.90;;;;;;5015103;28;20057;-65
2023/04/09 02:56:44;;;;;;;79.80;39.17;;;8.20;99.90;;;;;;5014918;28;20053;-80
2023/04/09 02:59:10;;;;;;;80.85;40.05;;;8.40;99.90;;;;;;5014975;28;20492;-66
2023/04/09 03:01:36;;;;;;;75.80;38.05;;;8.00;99.90;;;;;;5014968;28;20042;-66
2023/04/09 03:04:02;;;;;;;70.70;37.92;;;8.40;99.90;;;;;;5014000;28;20045;-65
2023/04/09 03:06:27;;;;;;;78.60;39.42;;;8.20;99.90;;;;;;5015059;28;20046;-66
2023/04/09 03:08:53;;;;;;;75.43;38.70;;;8.60;99.90;;;;;;5014953;28;20486;-65
2023/04/09 03:11:18;;;;;;;80.10;37.10;;;8.50;99.90;;;;;;5014255;28;20132;-65
2023/04/09 03:13:44;;;;;;;74.63;36.85;;;8.40;99.90;;;;;;5014603;28;20060;-65
2023/04/09 03:16:10;;;;;;;66.63;35.70;;;8.20;99.90;;;;;;5014603;28;20835;-65
2023/04/09 03:18:36;;;;;;;75.43;36.22;;;8.40;99.90;;;;;;5014569;28;20068;-69
2023/04/09 03:21:09;;;;;;;79.40;37.22;;;8.20;99.90;;;;;;5014212;28;20045;-66
2023/04/09 03:23:34;;;;;;;75.38;37.03;;;8.30;99.90;;;;;;5014719;28;20049;-65
2023/04/09 03:26:05;;;;;;;72.13;36.80;;;8.10;99.90;;;;;;5014147;28;20479;-65
2023/04/09 03:28:30;;;;;;;77.20;38.30;;;8.10;99.90;;;;;;5014314;28;20402;-69
2023/04/09 03:30:56;;;;;;;72.85;36.80;;;8.40;99.90;;;;;;5014248;28;20046;-66
2023/04/09 03:33:23;;;;;;;70.00;36.13;;;8.00;99.90;;;;;;5014151;28;20132;-66
2023/04/09 03:35:49;;;;;;;75.22;36.13;;;8.20;99.90;;;;;;5013903;28;20140;-65
2023/04/09 03:38:15;;;;;;;74.63;36.95;;;8.40;99.90;;;;;;5014116;28;20229;-65
2023/04/09 03:40:41;;;;;;;68.70;37.42;;;8.30;99.90;;;;;;5012605;28;20057;-68
2023/04/09 03:43:07;;;;;;;74.60;36.35;;;8.70;99.90;;;;;;5013940;28;20495;-68
2023/04/09 03:45:33;;;;;;;76.82;37.42;;;8.50;99.90;;;;;;5012969;28;20042;-65
2023/04/09 03:47:58;;;;;;;73.85;34.90;;;8.20;99.90;;;;;;5013935;28;20060;-65
2023/04/09 03:50:24;;;;;;;66.35;35.60;;;8.00;99.90;;;;;;5012631;28;20050;-65
2023/04/09 03:52:50;;;;;;;66.45;35.30;;;8.20;99.90;;;;;;5012430;28;20050;-65
2023/04/09 03:55:16;;;;;;;62.95;33.28;;;8.50;99.90;;;;;;5012499;28;20045;-68
2023/04/09 03:57:41;;;;;;;68.28;35.10;;;8.20;99.90;;;;;;5013641;28;20041;-65
2023/04/09 04:00:08;;;;;;;61.78;32.83;;;8.30;99.90;;;;;;5013662;28;20056;-65
2023/04/09 04:02:33;;;;;;;66.07;34.60;;;8.10;99.90;;;;;;5013559;28;20053;-65
2023/04/09 04:04:59;;;;;;;66.03;33.65;;;8.40;99.90;;;;;;5013571;28;20046;-65
2023/04/09 04:07:25;;;;;;;63.05;33.00;;;8.20;99.90;;;;;;5013559;28;20046;-65
2023/04/09 04:09:50;;;;;;;63.97;32.42;;;8.20;99.90;;;;;;5013272;28;20058;-65
2023/04/09 04:12:16;;;;;;;57.40;30.77;;;8.30;99.90;;;;;;5013426;28;20046;-66
2023/04/09 04:14:42;;;;;;;60.30;31.20;;;8.00;99.90;;;;;;5013415;28;20497;-65
2023/04/09 04:17:09;;;;;;;62.63;31.55;;;8.50;99.90;;;;;;5012352;28;20042;-65
2023/04/09 04:19:34;;;;;;;60.35;31.60;;;8.10;99.90;;;;;;5013276;28;20100;-65
2023/04/09 04:22:00;;;;;;;59.75;32.28;;;7.80;99.90;;;;;;5013334;28;20101;-65
2023/04/09 04:24:26;;;;;;;57.85;30.98;;;8.20;99.90;;;;;;5012991;28;20068;-65
2023/04/09 04:26:51;;;;;;;60.40;31.75;;;7.90;99.90;;;;;;5012834;28;20050;-66
2023/04/09 04:29:17;;;;;;;57.05;30.00;;;7.90;99.90;;;;;;5013490;28;20046;-65
2023/04/09 04:31:43;;;;;;;61.03;32.30;;;7.90;99.90;;;;;;5013338;28;20471;-65
2023/04/09 04:34:08;;;;;;;58.08;31.95;;;8.40;99.90;;;;;;5013068;28;20046;-65
2023/04/09 04:36:35;;;;;;;61.50;31.88;;;7.90;99.90;;;;;;5012934;28;20084;-65
2023/04/09 04:39:01;;;;;;;64.00;33.00;;;7.70;99.90;;;;;;5012726;28;20054;-68
2023/04/09 04:41:28;;;;;;;61.70;31.50;;;7.90;99.90;;;;;;5011792;28;20057;-64
2023/04/09 04:43:53;;;;;;;57.00;30.33;;;8.00;99.90;;;;;;5013000;28;20057;-65
2023/04/09 04:46:19;;;;;;;56.40;31.45;;;8.20;99.90;;;;;;5013004;28;20045;-65
2023/04/09 04:48:45;;;;;;;59.45;32.10;;;8.10;99.90;;;;;;5012903;28;20501;-65
2023/04/09 04:51:10;;;;;;;56.75;30.27;;;7.90;99.90;;;;;;5012492;28;20137;-65
2023/04/09 04:53:36;;;;;;;59.60;30.60;;;7.70;99.90;;;;;;5011346;28;20054;-68
2023/04/09 04:56:02;;;;;;;61.92;31.55;;;8.00;99.90;;;;;;5012755;28;20046;-66
2023/04/09 04:58:29;;;;;;;68.75;32.08;;;7.90;99.90;;;;;;4995403;28;20077;-65
2023/04/09 05:00:54;;;;;;;60.20;31.77;;;8.00;99.90;;;;;;5012649;28;20057;-65
2023/04/09 05:03:20;;;;;;;59.22;31.88;;;7.90;99.90;;;;;;5012672;28;20475;-64
2023/04/09 05:05:46;;;;;;;58.72;30.90;;;8.90;99.90;;;;;;5012969;28;20384;-65
2023/04/09 05:08:11;;;;;;;56.47;29.92;;;7.90;99.90;;;;;;5012556;28;20053;-71
2023/04/09 05:10:41;;;;;;;60.80;32.05;;;7.80;99.90;;;;;;5012724;28;20499;-65
2023/04/09 05:13:07;;;;;;;59.50;31.02;;;7.70;99.90;;;;;;5012513;28;20085;-70
2023/04/09 05:15:36;;;;;;;57.97;30.60;;;7.90;99.90;;;;;;5012496;28;20092;-66
2023/04/09 05:18:01;;;;;;;60.47;30.42;;;7.90;99.90;;;;;;5012436;28;20127;-65
2023/04/09 05:20:27;;;;;;;59.72;31.45;;;7.70;99.90;;;;;;5012465;28;20487;-66
2023/04/09 05:22:53;;;;;;;54.75;29.63;;;8.10;99.90;;;;;;5012154;28;20046;-68
2023/04/09 05:25:18;;;;;;;56.72;30.20;;;7.90;99.90;;;;;;5012429;28;20103;-65
2023/04/09 05:27:44;;;;;;;57.28;30.83;;;8.00;99.90;;;;;;5012475;28;20046;-65
2023/04/09 05:30:10;;;;;;;54.22;29.33;;;8.10;99.90;;;;;;5012022;28;20508;-65
2023/04/09 05:32:36;;;;;;;57.33;31.20;;;8.10;99.90;;;;;;5012260;28;20038;-65
2023/04/09 05:35:02;;;;;;;;;;;8.20;99.90;;;;;;5012805;28;20045;-65
2023/04/09 05:37:28;;;;;;;56.38;29.75;;;8.00;99.90;;;;;;5012051;28;19925;-65
2023/04/09 05:39:53;;;;;;;63.35;31.38;;;8.00;99.90;;;;;;5012019;28;20100;-67
2023/04/09 05:42:19;;;;;;;54.05;29.08;;;7.90;99.90;;;;;;5012629;28;20053;-66
2023/04/09 05:44:45;;;;;;;61.20;31.10;;;8.10;99.90;;;;;;5012380;28;20438;-66
2023/04/09 05:47:10;;;;;;;59.60;29.42;;;8.30;99.90;;;;;;5012309;28;20137;-65
2023/04/09 05:49:36;;;;;;;50.28;28.02;;;8.20;99.90;;;;;;5012243;28;20050;-65
2023/04/09 05:52:02;;;;;;;53.45;30.63;;;8.40;99.90;;;;;;5011660;28;20096;-65
2023/04/09 05:54:27;;;;;;;58.58;29.73;;;7.90;99.90;;;;;;5012255;28;20045;-66
2023/04/09 05:56:53;;;;;;;56.67;28.90;;;8.00;99.90;;;;;;5012158;28;20490;-65
2023/04/09 05:59:19;;;;;;;54.05;29.88;;;8.20;99.90;;;;;;5012103;28;20053;-65
2023/04/09 06:01:45;;;;;;;55.03;28.88;;;8.50;99.90;;;;;;5011808;28;20046;-68
2023/04/09 06:04:10;;;;;;;56.97;30.70;;;8.40;99.90;;;;;;5013224;28;20050;-66
2023/04/09 06:06:37;;;;;;;56.92;31.23;;;8.60;99.90;;;;;;5015643;28;20455;-66
2023/04/09 06:09:03;;;;;;;58.22;31.10;;;8.20;99.90;;;;;;5015887;28;20128;-65
2023/04/09 06:11:29;;;;;;;55.65;29.73;;;8.50;99.90;;;;;;5015819;28;20557;-66
2023/04/09 06:13:55;;;;;;;60.25;31.00;;;8.10;99.90;;;;;;5015761;28;20503;-65
2023/04/09 06:16:20;;;;;;;56.63;30.98;;;8.30;99.90;;;;;;5014621;28;20081;-70
2023/04/09 06:18:48;;;;;;;54.97;30.17;;;8.60;99.90;;;;;;5015609;28;20180;-65
2023/04/09 06:21:14;;;;;;;60.63;30.73;;;8.30;99.90;;;;;;5015148;28;20042;-65
2023/04/09 06:23:40;;;;;;;53.75;29.88;;;8.60;99.90;;;;;;5015641;28;20100;-65
2023/04/09 06:26:05;;;;;;;55.33;31.00;;;8.40;99.90;;;;;;5014411;28;20052;-65
2023/04/09 06:28:32;;;;;;;54.50;32.10;;;8.50;99.90;;;;;;5015523;28;20056;-68
2023/04/09 06:30:58;;;;;;;59.80;29.95;;;8.50;99.90;;;;;;5015008;28;20540;-69
2023/04/09 06:33:24;;;;;;;57.90;29.85;;;8.60;99.90;;;;;;5015408;28;20046;-66
2023/04/09 06:35:49;;;;;;;51.15;29.17;;;8.50;99.90;;;;;;5013306;28;20421;-65
2023/04/09 06:38:15;;;;;;;51.35;29.50;;;8.40;99.90;;;;;;5015370;28;20056;-65
2023/04/09 06:40:42;;;;;;;54.40;30.83;;;8.40;99.90;;;;;;5015149;28;20072;-65
2023/04/09 06:43:08;;;;;;;54.53;31.20;;;8.40;99.90;;;;;;5014956;28;20486;-66
2023/04/09 06:45:35;;;;;;;56.05;30.85;;;8.70;99.90;;;;;;5013557;28;20056;-69
2023/04/09 06:48:00;;;;;;;59.65;31.35;;;8.50;99.90;;;;;;5007640;28;20050;-65
2023/04/09 06:50:26;;;;;;;53.60;30.83;;;8.50;99.90;;;;;;5013757;28;20092;-66
2023/04/09 06:52:52;;;;;;;53.13;31.75;;;8.50;99.90;;;;;;5014258;28;20405;-65
2023/04/09 06:55:18;;;;;;;;;;;8.60;99.90;;;;;;5014363;28;20510;-67
2023/04/09 06:57:44;;;;;;;63.08;33.08;;;8.60;99.90;;;;;;5014609;28;19922;-66
2023/04/09 07:00:10;;;;;;;56.65;31.13;;;8.10;99.90;;;;;;5014799;28;20116;-66
2023/04/09 07:02:36;;;;;;;59.60;32.28;;;8.80;99.90;;;;;;5014011;28;20084;-65
2023/04/09 07:05:03;;;;;;;60.08;33.05;;;8.50;99.90;;;;;;5014365;28;20065;-65
2023/04/09 07:07:29;;;;;;;51.00;30.17;;;8.80;99.90;;;;;;5014122;28;20054;-68
2023/04/09 07:09:55;;;;;;;;;;;8.80;99.90;;;;;;4999200;28;20046;-65
2023/04/09 07:12:27;;;;;;;53.38;30.05;;;8.70;99.90;;;;;;5008786;28;19944;-66
2023/04/09 07:15:00;;;;;;;55.70;31.88;;;8.50;99.90;;;;;;5014162;28;20057;-70
2023/04/09 07:17:25;;;;;;;57.00;32.53;;;8.80;99.90;;;;;;5013518;28;20125;-66
2023/04/09 07:19:52;;;;;;;61.63;33.10;;;8.70;99.90;;;;;;5013982;28;20397;-65
2023/04/09 07:22:20;;;;;;;56.50;31.95;;;8.90;99.90;;;;;;5014094;28;20089;-72
2023/04/09 07:24:45;;;;;;;58.10;33.40;;;8.70;99.90;;;;;;5013790;28;20397;-66
2023/04/09 07:27:11;;;;;;;50.78;28.92;;;8.70;99.90;;;;;;5014070;28;20121;-66
2023/04/09 07:29:37;;;;;;;48.55;27.38;;;9.00;99.90;;;;;;5007486;28;20052;-66
2023/04/09 07:32:03;;;;;;;49.40;28.88;;;8.90;99.90;;;;;;5011471;28;20112;-69
2023/04/09 07:34:28;;;;;;;46.03;26.73;;;8.80;99.90;;;;;;5012753;28;20130;-66
2023/04/09 07:36:54;;;;;;;44.35;26.17;;;8.90;99.90;;;;;;5014908;28;20459;-68
2023/04/09 07:39:21;;;;;;;42.03;26.50;;;8.80;99.90;;;;;;5004381;28;20147;-65
2023/04/09 07:41:47;;;;;;;47.13;26.65;;;8.60;99.90;;;;;;5012484;28;20056;-67
2023/04/09 07:44:13;;;;;;;41.45;25.85;;;8.70;99.90;;;;;;5013422;28;20046;-66
2023/04/09 07:46:40;;;;;;;43.80;26.58;;;8.80;99.90;;;;;;5011526;28;20057;-68
2023/04/09 07:49:05;;;;;;;43.35;25.33;;;8.70;99.90;;;;;;5011767;28;20131;-68
2023/04/09 07:51:31;;;;;;;40.67;25.45;;;8.60;99.90;;;;;;5012167;28;20459;-65
2023/04/09 07:53:57;;;;;;;39.78;24.80;;;8.90;99.90;;;;;;5012245;28;20042;-66
2023/04/09 07:56:23;;;;;;;44.20;26.08;;;8.80;99.90;;;;;;5012576;28;20116;-68
2023/04/09 07:58:49;;;;;;;44.38;26.83;;;8.90;99.90;;;;;;5011378;28;20049;-70
2023/04/09 08:01:15;;;;;;;;;;;9.10;99.90;;;;;;5011978;28;20121;-76
2023/04/09 08:03:41;;;;;;;45.17;26.67;;;9.10;99.90;;;;;;5012255;28;19921;-67
2023/04/09 08:06:07;;;;;;;42.67;26.17;;;9.10;99.90;;;;;;5012435;28;20050;-67
2023/04/09 08:08:33;;;;;;;48.25;26.35;;;8.90;99.90;;;;;;5012258;28;20132;-70
2023/04/09 08:10:59;;;;;;;47.22;28.27;;;9.20;99.90;;;;;;5026617;28;20049;-67
2023/04/09 08:13:24;;;;;;;47.60;28.35;;;8.90;99.90;;;;;;5012353;28;20056;-66
2023/04/09 08:15:50;;;;;;;48.00;28.55;;;9.00;99.90;;;;;;5011187;28;20433;-69
2023/04/09 08:18:16;;;;;;;48.33;28.73;;;9.10;99.90;;;;;;5012063;28;20128;-71
2023/04/09 08:20:44;;;;;;;47.20;28.55;;;9.20;99.90;;;;;;5012334;28;20410;-75
2023/04/09 08:23:12;;;;;;;45.85;28.00;;;9.10;99.90;;;;;;5011739;28;20441;-66
2023/04/09 08:25:38;;;;;;;46.17;27.67;;;9.00;99.90;;;;;;5012469;28;20049;-67
2023/04/09 08:28:04;;;;;;;48.88;27.90;;;9.30;99.90;;;;;;5008014;28;20061;-67
2023/04/09 08:30:32;;;;;;;47.65;27.88;;;9.30;99.90;;;;;;5009078;28;20104;-66
2023/04/09 08:32:59;;;;;;;43.85;26.15;;;9.60;99.90;;;;;;5008201;28;20056;-70
2023/04/09 08:35:27;;;;;;;40.22;25.05;;;9.60;99.90;;;;;;5012840;28;20525;-67
2023/04/09 08:37:55;;;;;;;42.70;26.10;;;9.60;99.90;;;;;;5012194;28;20045;-66
2023/04/09 08:40:21;;;;;;;40.90;25.15;;;9.80;99.90;;;;;;5011792;28;20548;-67
2023/04/09 08:42:56;;;;;;;39.67;25.13;;;10.20;99.90;;;;;;5012844;28;20049;-66
2023/04/09 08:45:22;;;;;;;42.05;25.02;;;9.80;99.90;;;;;;5012159;28;20077;-66
2023/04/09 08:47:50;;;;;;;41.55;25.42;;;9.50;99.90;;;;;;5011532;28;20056;-66
2023/04/09 08:50:16;;;;;;;39.03;24.33;;;9.80;99.90;;;;;;5012837;28;20398;-66
2023/04/09 08:52:44;;;;;;;41.90;24.88;;;9.90;99.90;;;;;;5012314;28;20041;-66
2023/04/09 08:55:10;;;;;;;39.60;25.55;;;9.70;99.90;;;;;;5012869;28;20057;-66
2023/04/09 08:57:40;;;;;;;40.88;26.42;;;9.60;99.90;;;;;;5012468;28;20128;-66
2023/04/09 09:00:07;;;;;;;44.60;26.25;;;9.80;99.90;;;;;;5011581;28;20080;-66
2023/04/09 09:02:33;;;;;;;47.65;28.05;;;10.00;99.90;;;;;;5012602;28;20050;-66
2023/04/09 09:04:59;;;;;;;47.83;29.35;;;10.10;99.90;;;;;;5012600;28;20054;-66
2023/04/09 09:07:28;;;;;;;48.53;27.55;;;10.20;99.90;;;;;;5012015;28;20150;-69
2023/04/09 09:09:59;;;;;;;44.63;27.77;;;9.90;99.90;;;;;;5012208;28;20049;-66
2023/04/09 09:12:41;;;;;;;44.40;25.98;;;10.10;99.90;;;;;;5012352;28;20107;-69
2023/04/09 09:15:36;;;;;;;45.50;26.48;;;9.50;99.90;;;;;;5011215;28;20097;-66
2023/04/09 09:18:02;;;;;;;48.15;28.13;;;10.10;99.90;;;;;;5002206;28;20053;-66
2023/04/09 09:20:28;;;;;;;49.45;28.48;;;10.10;99.90;;;;;;4995067;28;20112;-66
2023/04/09 09:22:55;;;;;;;47.47;28.15;;;10.00;99.90;;;;;;5011656;28;20085;-66
2023/04/09 09:25:22;;;;;;;44.90;26.58;;;9.90;99.90;;;;;;5012262;28;20058;-66
2023/04/09 09:27:48;;;;;;;47.47;27.58;;;10.20;99.90;;;;;;5012142;28;20089;-66
2023/04/09 09:30:24;;;;;;;44.13;25.98;;;10.00;99.90;;;;;;5011296;28;20041;-66
2023/04/09 09:33:03;;;;;;;45.13;26.02;;;10.10;99.90;;;;;;5012253;28;20046;-66
2023/04/09 09:35:29;;;;;;;46.63;27.27;;;10.20;99.90;;;;;;5012259;28;20112;-66
2023/04/09 09:38:03;;;;;;;45.75;26.63;;;10.10;99.90;;;;;;5011669;28;20509;-68
2023/04/09 09:40:28;;;;;;;42.72;27.50;;;10.00;99.90;;;;;;5014772;28;20046;-66
2023/04/09 09:42:57;;;;;;;48.05;29.02;;;9.90;99.90;;;;;;5015806;28;20065;-66
2023/04/09 09:45:24;;;;;;;47.00;28.33;;;10.10;99.90;;;;;;5015358;28;20151;-66
2023/04/09 09:47:52;;;;;;;47.80;27.08;;;10.20;99.90;;;;;;5014693;28;20053;-72
2023/04/09 09:50:21;;;;;;;46.08;26.75;;;10.20;99.90;;;;;;5014110;28;20128;-69
2023/04/09 09:52:47;;;;;;;41.95;25.35;;;10.20;99.90;;;;;;5013842;28;20045;-67
2023/04/09 09:55:14;;;;;;;;;;;10.50;99.90;;;;;;5014244;28;20096;-70
2023/04/09 09:57:42;;;;;;;47.75;27.17;;;10.70;99.90;;;;;;5013500;28;20016;-66
2023/04/09 10:00:12;;;;;;;41.47;25.45;;;10.50;99.90;;;;;;5013828;28;20057;-69
2023/04/09 10:02:55;;;;;;;43.42;26.85;;;10.50;99.90;;;;;;5013198;28;20045;-66
2023/04/09 10:05:25;;;;;;;44.78;27.23;;;10.80;99.90;;;;;;5016824;28;20053;-78
2023/04/09 10:07:53;;;;;;;47.03;27.13;;;10.80;99.90;;;;;;5023631;28;20053;-67
2023/04/09 10:10:20;;;;;;;42.35;26.02;;;10.80;99.90;;;;;;5013760;28;20108;-69
2023/04/09 10:12:46;;;;;;;43.42;26.92;;;10.90;99.90;;;;;;5014954;28;20061;-70
2023/04/09 10:15:12;;;;;;;47.50;26.83;;;10.50;99.90;;;;;;5014623;28;20119;-67
2023/04/09 10:17:37;;;;;;;40.20;26.13;;;11.20;99.90;;;;;;5015185;28;20046;-67
2023/04/09 10:20:15;;;;;;;46.13;26.73;;;11.00;99.90;;;;;;5014963;28;20057;-70
2023/04/09 10:22:44;;;;;;;43.55;25.40;;;11.00;99.90;;;;;;5014387;28;20048;-69
2023/04/09 10:25:10;;;;;;;40.08;25.63;;;11.00;99.90;;;;;;5014914;28;20054;-69
2023/04/09 10:27:35;;;;;;;40.03;25.17;;;11.60;99.90;;;;;;5014577;28;20049;-69
2023/04/09 10:30:01;;;;;;;42.55;25.52;;;11.40;99.90;;;;;;5014406;28;20184;-66
2023/04/09 10:32:34;;;;;;;41.28;25.73;;;11.20;99.90;;;;;;5014865;28;20085;-66
2023/04/09 10:35:02;;;;;;;41.90;24.90;;;11.40;99.90;;;;;;5014733;28;20049;-67
2023/04/09 10:37:29;;;;;;;40.97;25.17;;;11.50;99.90;;;;;;5013914;28;20097;-64
2023/04/09 10:39:56;;;;;;;;;;;11.70;99.90;;;;;;5015056;28;20042;-64
2023/04/09 10:42:25;;;;;;;39.08;24.55;;;11.40;99.90;;;;;;5014628;28;19925;-64
2023/04/09 10:45:11;;;;;;;36.88;24.25;;;11.60;99.90;;;;;;5010445;28;20454;-65
2023/04/09 10:47:38;;;;;;;39.60;24.13;;;12.30;99.90;;;;;;5012919;28;20045;-64
2023/04/09 10:50:31;;;;;;;38.15;25.17;;;12.10;99.90;;;;;;5012299;28;20042;-64
2023/04/09 10:52:59;;;;;;;39.88;25.17;;;12.00;99.90;;;;;;5012273;28;20050;-72
2023/04/09 10:55:31;;;;;;;38.80;24.67;;;12.50;99.90;;;;;;5008281;28;20050;-64
2023/04/09 10:57:57;;;;;;;37.88;24.83;;;12.50;99.90;;;;;;5014351;28;20192;-64
2023/04/09 11:00:23;;;;;;;;;;;12.70;99.90;;;;;;5014346;28;20406;-64
2023/04/09 11:03:00;;;;;;;37.42;24.20;;;12.40;99.90;;;;;;5010886;28;19925;-64
2023/04/09 11:05:35;;;;;;;38.22;24.92;;;12.60;99.90;;;;;;5013944;28;20055;-65
2023/04/09 11:08:10;;;;;;;39.95;24.83;;;12.70;99.90;;;;;;5013612;28;20064;-63
2023/04/09 11:10:37;;;;;;;36.78;24.20;;;12.80;99.90;;;;;;5013855;28;20060;-67
2023/04/09 11:13:03;;;;;;;38.30;25.10;;;13.10;99.90;;;;;;5014279;28;20050;-64
2023/04/09 11:15:30;;;;;;;;;;;12.80;99.90;;;;;;5014515;28;20053;-64
2023/04/09 11:17:56;;;;;;;41.47;24.60;;;12.80;99.90;;;;;;5013983;28;20503;-63
2023/04/09 11:20:24;;;;;;;35.83;24.52;;;12.80;99.90;;;;;;5013994;28;20045;-64
2023/04/09 11:22:51;;;;;;;36.33;25.30;;;12.80;99.90;;;;;;5013945;28;20130;-64
2023/04/09 11:25:25;;;;;;;40.72;26.23;;;13.50;99.90;;;;;;5013767;28;20054;-63
2023/04/09 11:27:51;;;;;;;37.88;25.40;;;13.40;99.90;;;;;;5013550;28;20516;-63
2023/04/09 11:30:17;;;;;;;36.78;24.90;;;13.60;99.90;;;;;;5013846;28;20049;-64
2023/04/09 11:32:43;;;;;;;;;;;13.90;99.90;;;;;;5014378;28;20494;-64
2023/04/09 11:35:14;;;;;;;35.78;23.83;;;14.00;99.90;;;;;;5013709;28;19929;-64
2023/04/09 11:37:41;;;;;;;36.20;24.50;;;14.20;99.90;;;;;;5013655;28;20077;-64
2023/04/09 11:40:15;;;;;;;37.03;23.92;;;14.40;99.90;;;;;;5013364;28;20097;-64
2023/04/09 11:42:41;;;;;;;33.33;23.10;;;14.50;99.90;;;;;;5013742;28;20490;-64
2023/04/09 11:45:11;;;;;;;33.70;22.60;;;14.30;99.90;;;;;;5013511;28;20064;-64
2023/04/09 11:47:41;;;;;;;33.08;22.67;;;14.80;99.90;;;;;;5013423;28;20049;-64
2023/04/09 11:50:08;;;;;;;34.40;23.58;;;14.80;99.90;;;;;;5013581;28;20088;-65
2023/04/09 11:52:37;;;;;;;35.20;23.55;;;14.40;99.90;;;;;;5013292;28;20049;-64
2023/04/09 11:55:07;;;;;;;32.40;22.73;;;14.40;99.90;;;;;;5013240;28;20049;-64
2023/04/09 11:57:42;;;;;;;33.95;22.92;;;14.50;99.90;;;;;;5013308;28;20141;-64
2023/04/09 12:00:13;;;;;;;33.90;21.80;;;14.70;99.90;;;;;;5013331;28;20394;-64
2023/04/09 12:02:46;;;;;;;31.75;21.52;;;14.80;99.90;;;;;;5012585;28;20046;-63
2023/04/09 12:05:32;;;;;;;32.38;22.13;;;14.90;99.90;;;;;;5011852;28;20049;-64
2023/04/09 12:08:03;;;;;;;32.35;20.88;;;14.90;99.90;;;;;;5012880;28;20053;-64
2023/04/09 12:10:36;;;;;;;33.08;22.77;;;14.80;99.90;;;;;;5012050;28;20049;-64
2023/04/09 12:13:09;;;;;;;30.50;21.88;;;15.00;99.90;;;;;;5013019;28;20124;-66
2023/04/09 12:15:36;;;;;;;33.70;22.63;;;15.00;99.90;;;;;;5013040;28;20037;-64
2023/04/09 12:18:02;;;;;;;31.58;21.85;;;15.20;99.90;;;;;;5013188;28;20415;-64
2023/04/09 12:20:29;;;;;;;;;;;15.00;99.90;;;;;;5013413;28;20065;-64
2023/04/09 12:22:55;;;;;;;33.60;23.02;;;15.30;99.90;;;;;;5012631;28;19921;-64
2023/04/09 12:25:21;;;;;;;;;;;15.00;99.90;;;;;;5013415;28;20112;-63
2023/04/09 12:27:46;;;;;;;31.90;21.75;;;15.30;99.90;;;;;;5012822;28;19933;-64
2023/04/09 12:30:12;;;;;;;;;;;15.20;99.90;;;;;;5013186;28;20053;-64
2023/04/09 12:32:37;;;;;;;36.47;22.48;;;15.40;99.90;;;;;;5012683;28;20012;-65
2023/04/09 12:35:03;;;;;;;;;;;15.50;99.90;;;;;;5013320;28;20042;-65
2023/04/09 12:37:29;;;;;;;33.35;22.55;;;15.40;99.90;;;;;;5012446;28;20316;-67
2023/04/09 12:39:55;;;;;;;;;;;15.50;99.90;;;;;;5013330;28;20042;-64